sensor_id;sensor_type;location;lat;lon;timestamp;P1;durP1;ratioP1;P2;durP2;ratioP2
44120;SDS011;29783;52.504;13.478;2022-11-18T00:35:04;21.30;;;16.67;;
44120;SDS011;29783;52.504;13.478;2022-11-18T00:55:20;19.35;;;15.65;;
44120;SDS011;29783;52.504;13.478;2022-11-18T01:01:51;19.85;;;16.08;;
44120;SDS011;29783;52.504;13.478;2022-11-18T01:05:09;19.08;;;16.25;;
44120;SDS011;29783;52.504;13.478;2022-11-18T01:28:49;16.13;;;13.18;;
44120;SDS011;29783;52.504;13.478;2022-11-18T01:35:42;18.83;;;13.77;;
44120;SDS011;29783;52.504;13.478;2022-11-18T02:00:16;20.10;;;14.00;;
44120;SDS011;29783;52.504;13.478;2022-11-18T03:41:13;23.30;;;17.02;;
44120;SDS011;29783;52.504;13.478;2022-11-18T04:49:19;31.73;;;26.88;;
44120;SDS011;29783;52.504;13.478;2022-11-18T05:07:11;38.20;;;28.27;;
44120;SDS011;29783;52.504;13.478;2022-11-18T05:14:03;36.00;;;29.17;;
44120;SDS011;29783;52.504;13.478;2022-11-18T05:31:07;36.15;;;31.95;;
44120;SDS011;29783;52.504;13.478;2022-11-18T05:33:38;37.92;;;32.03;;
44120;SDS011;29783;52.504;13.478;2022-11-18T05:36:05;35.80;;;27.63;;
44120;SDS011;29783;52.504;13.478;2022-11-18T05:38:33;41.25;;;31.38;;
44120;SDS011;29783;52.504;13.478;2022-11-18T05:40:59;36.83;;;30.83;;
44120;SDS011;29783;52.504;13.478;2022-11-18T05:43:25;35.13;;;29.27;;
44120;SDS011;29783;52.504;13.478;2022-11-18T05:45:51;36.40;;;28.67;;
44120;SDS011;29783;52.504;13.478;2022-11-18T05:48:17;32.80;;;28.98;;
44120;SDS011;29783;52.504;13.478;2022-11-18T05:50:45;34.10;;;28.15;;
44120;SDS011;29783;52.504;13.478;2022-11-18T05:53:12;37.97;;;28.42;;
44120;SDS011;29783;52.504;13.478;2022-11-18T05:55:39;37.50;;;29.15;;
44120;SDS011;29783;52.504;13.478;2022-11-18T05:58:12;33.90;;;25.27;;
44120;SDS011;29783;52.504;13.478;2022-11-18T06:00:38;30.77;;;26.02;;
44120;SDS011;29783;52.504;13.478;2022-11-18T06:27:21;19.38;;;16.75;;
44120;SDS011;29783;52.504;13.478;2022-11-18T07:08:30;19.40;;;14.43;;
44120;SDS011;29783;52.504;13.478;2022-11-18T07:32:14;20.40;;;15.57;;
44120;SDS011;29783;52.504;13.478;2022-11-18T07:34:40;20.95;;;16.33;;
44120;SDS011;29783;52.504;13.478;2022-11-18T07:37:05;20.30;;;15.65;;
44120;SDS011;29783;52.504;13.478;2022-11-18T07:39:31;21.55;;;16.77;;
44120;SDS011;29783;52.504;13.478;2022-11-18T07:41:57;26.05;;;15.93;;
44120;SDS011;29783;52.504;13.478;2022-11-18T07:44:22;21.85;;;16.50;;
44120;SDS011;29783;52.504;13.478;2022-11-18T07:46:48;22.10;;;15.57;;
44120;SDS011;29783;52.504;13.478;2022-11-18T07:49:20;28.48;;;21.27;;
44120;SDS011;29783;52.504;13.478;2022-11-18T07:51:54;23.13;;;16.48;;
44120;SDS011;29783;52.504;13.478;2022-11-18T07:54:23;23.27;;;17.10;;
44120;SDS011;29783;52.504;13.478;2022-11-18T07:56:52;18.85;;;14.98;;
44120;SDS011;29783;52.504;13.478;2022-11-18T07:59:27;20.00;;;16.48;;
44120;SDS011;29783;52.504;13.478;2022-11-18T08:02:13;23.80;;;16.90;;
44120;SDS011;29783;52.504;13.478;2022-11-18T08:04:42;21.17;;;16.38;;
44120;SDS011;29783;52.504;13.478;2022-11-18T08:07:14;20.90;;;16.35;;
44120;SDS011;29783;52.504;13.478;2022-11-18T08:10:10;19.02;;;15.63;;
44120;SDS011;29783;52.504;13.478;2022-11-18T08:12:41;21.83;;;14.35;;
44120;SDS011;29783;52.504;13.478;2022-11-18T08:21:45;20.67;;;15.40;;
44120;SDS011;29783;52.504;13.478;2022-11-18T08:24:21;19.27;;;14.80;;
44120;SDS011;29783;52.504;13.478;2022-11-18T08:26:58;17.25;;;14.65;;
44120;SDS011;29783;52.504;13.478;2022-11-18T08:29:44;20.25;;;13.55;;
44120;SDS011;29783;52.504;13.478;2022-11-18T08:32:16;22.17;;;15.43;;
44120;SDS011;29783;52.504;13.478;2022-11-18T08:34:45;17.42;;;12.65;;
44120;SDS011;29783;52.504;13.478;2022-11-18T08:37:24;19.13;;;13.43;;
44120;SDS011;29783;52.504;13.478;2022-11-18T08:40:04;16.00;;;13.43;;
44120;SDS011;29783;52.504;13.478;2022-11-18T08:42:58;19.27;;;13.05;;
44120;SDS011;29783;52.504;13.478;2022-11-18T08:48:26;19.48;;;13.07;;
44120;SDS011;29783;52.504;13.478;2022-11-18T08:51:33;15.80;;;11.38;;
44120;SDS011;29783;52.504;13.478;2022-11-18T09:04:45;17.33;;;12.55;;
44120;SDS011;29783;52.504;13.478;2022-11-18T09:09:55;18.08;;;12.73;;
44120;SDS011;29783;52.504;13.478;2022-11-18T09:12:42;16.48;;;12.73;;
44120;SDS011;29783;52.504;13.478;2022-11-18T09:15:42;18.48;;;13.55;;
44120;SDS011;29783;52.504;13.478;2022-11-18T09:22:25;18.33;;;12.48;;
44120;SDS011;29783;52.504;13.478;2022-11-18T10:26:54;9.10;;;5.60;;
44120;SDS011;29783;52.504;13.478;2022-11-18T10:29:23;8.65;;;5.38;;
44120;SDS011;29783;52.504;13.478;2022-11-18T10:34:54;7.22;;;4.85;;
44120;SDS011;29783;52.504;13.478;2022-11-18T10:41:51;5.95;;;4.40;;
44120;SDS011;29783;52.504;13.478;2022-11-18T13:32:10;4.95;;;3.47;;
44120;SDS011;29783;52.504;13.478;2022-11-18T13:42:20;5.95;;;4.35;;
44120;SDS011;29783;52.504;13.478;2022-11-18T13:48:50;3.95;;;3.03;;
44120;SDS011;29783;52.504;13.478;2022-11-18T13:51:52;6.93;;;3.33;;
44120;SDS011;29783;52.504;13.478;2022-11-18T13:54:33;5.00;;;3.40;;
44120;SDS011;29783;52.504;13.478;2022-11-18T14:10:06;3.22;;;2.78;;
44120;SDS011;29783;52.504;13.478;2022-11-18T14:12:34;7.53;;;2.88;;
44120;SDS011;29783;52.504;13.478;2022-11-18T14:17:59;4.80;;;2.97;;
44120;SDS011;29783;52.504;13.478;2022-11-18T14:20:27;4.32;;;3.25;;
44120;SDS011;29783;52.504;13.478;2022-11-18T14:23:00;4.32;;;2.92;;
44120;SDS011;29783;52.504;13.478;2022-11-18T14:25:30;4.50;;;3.33;;
44120;SDS011;29783;52.504;13.478;2022-11-18T14:28:08;6.00;;;3.25;;
44120;SDS011;29783;52.504;13.478;2022-11-18T14:30:58;7.97;;;5.40;;
44120;SDS011;29783;52.504;13.478;2022-11-18T14:33:36;5.53;;;3.65;;
44120;SDS011;29783;52.504;13.478;2022-11-18T14:36:10;3.45;;;2.70;;
44120;SDS011;29783;52.504;13.478;2022-11-18T14:41:11;10.18;;;5.75;;
44120;SDS011;29783;52.504;13.478;2022-11-18T14:43:38;4.10;;;3.53;;
44120;SDS011;29783;52.504;13.478;2022-11-18T14:46:13;5.88;;;3.30;;
44120;SDS011;29783;52.504;13.478;2022-11-18T14:48:41;4.82;;;3.25;;
44120;SDS011;29783;52.504;13.478;2022-11-18T14:51:11;4.28;;;2.85;;
44120;SDS011;29783;52.504;13.478;2022-11-18T14:53:41;3.72;;;2.97;;
44120;SDS011;29783;52.504;13.478;2022-11-18T14:56:20;4.90;;;3.53;;
44120;SDS011;29783;52.504;13.478;2022-11-18T14:58:54;4.25;;;3.30;;
44120;SDS011;29783;52.504;13.478;2022-11-18T15:01:21;3.90;;;2.70;;
44120;SDS011;29783;52.504;13.478;2022-11-18T15:03:51;3.97;;;2.75;;
44120;SDS011;29783;52.504;13.478;2022-11-18T15:06:20;4.45;;;2.85;;
44120;SDS011;29783;52.504;13.478;2022-11-18T15:08:50;2.42;;;2.22;;
44120;SDS011;29783;52.504;13.478;2022-11-18T15:11:23;3.25;;;2.58;;
44120;SDS011;29783;52.504;13.478;2022-11-18T15:13:57;5.70;;;2.53;;
44120;SDS011;29783;52.504;13.478;2022-11-18T15:20:26;4.45;;;2.72;;
44120;SDS011;29783;52.504;13.478;2022-11-18T15:22:52;3.17;;;2.10;;
44120;SDS011;29783;52.504;13.478;2022-11-18T15:25:18;4.78;;;2.03;;
44120;SDS011;29783;52.504;13.478;2022-11-18T15:27:44;6.47;;;2.78;;
44120;SDS011;29783;52.504;13.478;2022-11-18T15:30:11;7.13;;;2.25;;
44120;SDS011;29783;52.504;13.478;2022-11-18T15:32:41;3.50;;;2.38;;
44120;SDS011;29783;52.504;13.478;2022-11-18T15:45:22;3.63;;;2.22;;
44120;SDS011;29783;52.504;13.478;2022-11-18T15:59:03;5.18;;;3.13;;
44120;SDS011;29783;52.504;13.478;2022-11-18T16:05:35;6.13;;;3.20;;
44120;SDS011;29783;52.504;13.478;2022-11-18T17:06:42;10.55;;;5.88;;
44120;SDS011;29783;52.504;13.478;2022-11-18T17:52:04;11.45;;;5.90;;
44120;SDS011;29783;52.504;13.478;2022-11-18T17:58:42;13.68;;;4.78;;
44120;SDS011;29783;52.504;13.478;2022-11-18T18:01:14;8.38;;;5.00;;
44120;SDS011;29783;52.504;13.478;2022-11-18T18:04:05;10.00;;;5.20;;
44120;SDS011;29783;52.504;13.478;2022-11-18T18:06:34;8.93;;;5.70;;
44120;SDS011;29783;52.504;13.478;2022-11-18T18:09:03;7.72;;;5.25;;
44120;SDS011;29783;52.504;13.478;2022-11-18T18:11:32;7.95;;;5.00;;
44120;SDS011;29783;52.504;13.478;2022-11-18T18:13:58;12.73;;;6.03;;
44120;SDS011;29783;52.504;13.478;2022-11-18T18:16:43;13.15;;;8.02;;
44120;SDS011;29783;52.504;13.478;2022-11-18T18:19:15;14.00;;;7.03;;
44120;SDS011;29783;52.504;13.478;2022-11-18T18:21:50;11.98;;;6.55;;
44120;SDS011;29783;52.504;13.478;2022-11-18T18:24:38;10.98;;;6.40;;
44120;SDS011;29783;52.504;13.478;2022-11-18T18:27:04;10.88;;;6.47;;
44120;SDS011;29783;52.504;13.478;2022-11-18T18:29:30;12.48;;;6.10;;
44120;SDS011;29783;52.504;13.478;2022-11-18T18:31:56;13.00;;;6.32;;
44120;SDS011;29783;52.504;13.478;2022-11-18T18:34:32;10.10;;;6.10;;
44120;SDS011;29783;52.504;13.478;2022-11-18T18:36:58;10.10;;;5.68;;
44120;SDS011;29783;52.504;13.478;2022-11-18T18:39:30;8.52;;;4.97;;
44120;SDS011;29783;52.504;13.478;2022-11-18T18:42:57;13.60;;;5.22;;
44120;SDS011;29783;52.504;13.478;2022-11-18T18:46:10;8.75;;;5.40;;
44120;SDS011;29783;52.504;13.478;2022-11-18T19:00:03;19.75;;;7.60;;
44120;SDS011;29783;52.504;13.478;2022-11-18T19:02:37;10.98;;;6.25;;
44120;SDS011;29783;52.504;13.478;2022-11-18T19:05:15;10.98;;;6.75;;
44120;SDS011;29783;52.504;13.478;2022-11-18T19:11:44;12.60;;;6.78;;
44120;SDS011;29783;52.504;13.478;2022-11-18T19:14:28;17.45;;;7.53;;
44120;SDS011;29783;52.504;13.478;2022-11-18T19:16:57;11.60;;;6.88;;
44120;SDS011;29783;52.504;13.478;2022-11-18T19:19:26;11.80;;;7.05;;
44120;SDS011;29783;52.504;13.478;2022-11-18T19:22:11;15.00;;;7.25;;
44120;SDS011;29783;52.504;13.478;2022-11-18T19:24:39;16.52;;;6.97;;
44120;SDS011;29783;52.504;13.478;2022-11-18T19:27:05;16.90;;;7.55;;
44120;SDS011;29783;52.504;13.478;2022-11-18T19:29:32;15.70;;;8.52;;
44120;SDS011;29783;52.504;13.478;2022-11-18T19:32:00;20.00;;;8.75;;
44120;SDS011;29783;52.504;13.478;2022-11-18T19:34:34;20.08;;;9.07;;
44120;SDS011;29783;52.504;13.478;2022-11-18T19:37:00;14.57;;;7.88;;
44120;SDS011;29783;52.504;13.478;2022-11-18T19:39:26;22.48;;;7.68;;
44120;SDS011;29783;52.504;13.478;2022-11-18T19:41:52;17.42;;;8.30;;
44120;SDS011;29783;52.504;13.478;2022-11-18T19:44:18;14.52;;;8.00;;
44120;SDS011;29783;52.504;13.478;2022-11-18T19:46:44;13.02;;;8.10;;
44120;SDS011;29783;52.504;13.478;2022-11-18T19:49:09;21.73;;;8.05;;
44120;SDS011;29783;52.504;13.478;2022-11-18T19:51:35;14.35;;;7.65;;
44120;SDS011;29783;52.504;13.478;2022-11-18T19:54:02;15.25;;;7.60;;
44120;SDS011;29783;52.504;13.478;2022-11-18T19:56:28;14.88;;;8.30;;
44120;SDS011;29783;52.504;13.478;2022-11-18T19:58:54;14.85;;;8.02;;
44120;SDS011;29783;52.504;13.478;2022-11-18T20:01:26;13.90;;;7.78;;
44120;SDS011;29783;52.504;13.478;2022-11-18T20:03:54;20.13;;;7.75;;
44120;SDS011;29783;52.504;13.478;2022-11-18T20:06:21;19.02;;;8.55;;
44120;SDS011;29783;52.504;13.478;2022-11-18T20:08:48;21.27;;;7.88;;
44120;SDS011;29783;52.504;13.478;2022-11-18T20:11:16;17.45;;;8.73;;
44120;SDS011;29783;52.504;13.478;2022-11-18T20:13:43;11.77;;;7.63;;
44120;SDS011;29783;52.504;13.478;2022-11-18T20:16:15;15.98;;;7.72;;
44120;SDS011;29783;52.504;13.478;2022-11-18T20:18:46;20.80;;;8.77;;
44120;SDS011;29783;52.504;13.478;2022-11-18T20:21:18;17.65;;;8.10;;
44120;SDS011;29783;52.504;13.478;2022-11-18T20:23:45;14.82;;;7.22;;
44120;SDS011;29783;52.504;13.478;2022-11-18T20:26:13;15.10;;;8.00;;
44120;SDS011;29783;52.504;13.478;2022-11-18T20:28:41;19.38;;;7.65;;
44120;SDS011;29783;52.504;13.478;2022-11-18T20:31:08;14.70;;;7.65;;
44120;SDS011;29783;52.504;13.478;2022-11-18T20:33:37;20.15;;;8.15;;
44120;SDS011;29783;52.504;13.478;2022-11-18T20:36:08;19.52;;;8.73;;
44120;SDS011;29783;52.504;13.478;2022-11-18T20:38:36;20.75;;;8.55;;
44120;SDS011;29783;52.504;13.478;2022-11-18T20:41:06;17.27;;;8.18;;
44120;SDS011;29783;52.504;13.478;2022-11-18T20:43:35;12.93;;;7.10;;
44120;SDS011;29783;52.504;13.478;2022-11-18T20:46:05;10.55;;;7.00;;
44120;SDS011;29783;52.504;13.478;2022-11-18T20:48:32;11.73;;;6.95;;
44120;SDS011;29783;52.504;13.478;2022-11-18T20:51:05;11.35;;;6.97;;
44120;SDS011;29783;52.504;13.478;2022-11-18T20:53:34;13.05;;;6.50;;
44120;SDS011;29783;52.504;13.478;2022-11-18T20:56:06;13.93;;;6.22;;
44120;SDS011;29783;52.504;13.478;2022-11-18T20:58:34;11.70;;;6.72;;
44120;SDS011;29783;52.504;13.478;2022-11-18T21:01:12;12.32;;;6.30;;
44120;SDS011;29783;52.504;13.478;2022-11-18T21:03:39;15.30;;;6.97;;
44120;SDS011;29783;52.504;13.478;2022-11-18T21:06:10;11.18;;;6.30;;
44120;SDS011;29783;52.504;13.478;2022-11-18T21:08:37;11.57;;;6.18;;
44120;SDS011;29783;52.504;13.478;2022-11-18T21:11:05;10.25;;;5.85;;
44120;SDS011;29783;52.504;13.478;2022-11-18T21:13:32;9.27;;;5.63;;
44120;SDS011;29783;52.504;13.478;2022-11-18T21:16:16;11.13;;;4.88;;
44120;SDS011;29783;52.504;13.478;2022-11-18T21:18:43;11.30;;;5.97;;
44120;SDS011;29783;52.504;13.478;2022-11-18T21:21:15;9.40;;;5.40;;
44120;SDS011;29783;52.504;13.478;2022-11-18T21:24:02;12.60;;;5.03;;
44120;SDS011;29783;52.504;13.478;2022-11-18T21:26:30;8.95;;;5.40;;
44120;SDS011;29783;52.504;13.478;2022-11-18T21:29:03;10.90;;;4.80;;
44120;SDS011;29783;52.504;13.478;2022-11-18T21:31:31;10.63;;;5.20;;
44120;SDS011;29783;52.504;13.478;2022-11-18T21:33:57;8.80;;;5.38;;
44120;SDS011;29783;52.504;13.478;2022-11-18T21:36:23;7.90;;;4.82;;
44120;SDS011;29783;52.504;13.478;2022-11-18T21:38:50;6.30;;;4.40;;
44120;SDS011;29783;52.504;13.478;2022-11-18T21:41:16;13.63;;;5.32;;
44120;SDS011;29783;52.504;13.478;2022-11-18T21:43:43;8.48;;;4.70;;
44120;SDS011;29783;52.504;13.478;2022-11-18T21:46:09;6.32;;;4.57;;
44120;SDS011;29783;52.504;13.478;2022-11-18T21:48:37;9.32;;;4.95;;
44120;SDS011;29783;52.504;13.478;2022-11-18T21:51:04;12.00;;;5.70;;
44120;SDS011;29783;52.504;13.478;2022-11-18T21:53:31;7.90;;;4.57;;
44120;SDS011;29783;52.504;13.478;2022-11-18T21:58:35;8.40;;;4.97;;
44120;SDS011;29783;52.504;13.478;2022-11-18T22:01:23;8.70;;;4.85;;
44120;SDS011;29783;52.504;13.478;2022-11-18T22:03:50;9.88;;;5.53;;
44120;SDS011;29783;52.504;13.478;2022-11-18T22:06:17;10.10;;;5.55;;
44120;SDS011;29783;52.504;13.478;2022-11-18T22:08:44;9.85;;;4.80;;
44120;SDS011;29783;52.504;13.478;2022-11-18T22:11:11;9.05;;;4.85;;
44120;SDS011;29783;52.504;13.478;2022-11-18T22:13:38;13.52;;;5.18;;
44120;SDS011;29783;52.504;13.478;2022-11-18T22:18:39;10.68;;;4.38;;
44120;SDS011;29783;52.504;13.478;2022-11-18T22:21:08;13.10;;;6.13;;
44120;SDS011;29783;52.504;13.478;2022-11-18T22:23:35;13.95;;;6.00;;
44120;SDS011;29783;52.504;13.478;2022-11-18T22:26:05;9.13;;;5.68;;
44120;SDS011;29783;52.504;13.478;2022-11-18T22:28:34;15.40;;;5.82;;
44120;SDS011;29783;52.504;13.478;2022-11-18T22:31:04;15.23;;;7.43;;
44120;SDS011;29783;52.504;13.478;2022-11-18T22:33:35;17.85;;;7.07;;
44120;SDS011;29783;52.504;13.478;2022-11-18T22:36:01;13.80;;;6.78;;
44120;SDS011;29783;52.504;13.478;2022-11-18T22:38:28;14.25;;;6.72;;
44120;SDS011;29783;52.504;13.478;2022-11-18T22:40:58;17.33;;;7.63;;
44120;SDS011;29783;52.504;13.478;2022-11-18T22:43:29;9.98;;;4.88;;
44120;SDS011;29783;52.504;13.478;2022-11-18T22:48:32;14.52;;;6.22;;
44120;SDS011;29783;52.504;13.478;2022-11-18T22:51:02;13.38;;;6.38;;
44120;SDS011;29783;52.504;13.478;2022-11-18T22:53:30;11.93;;;6.47;;
44120;SDS011;29783;52.504;13.478;2022-11-18T22:56:15;12.85;;;5.80;;
44120;SDS011;29783;52.504;13.478;2022-11-18T22:58:41;7.55;;;4.68;;
44120;SDS011;29783;52.504;13.478;2022-11-18T23:01:08;10.68;;;5.20;;
44120;SDS011;29783;52.504;13.478;2022-11-18T23:03:39;11.48;;;5.97;;
44120;SDS011;29783;52.504;13.478;2022-11-18T23:06:05;14.85;;;6.10;;
44120;SDS011;29783;52.504;13.478;2022-11-18T23:11:38;10.52;;;5.68;;
44120;SDS011;29783;52.504;13.478;2022-11-18T23:14:28;10.75;;;5.53;;
44120;SDS011;29783;52.504;13.478;2022-11-18T23:16:57;11.52;;;5.13;;
44120;SDS011;29783;52.504;13.478;2022-11-18T23:19:23;12.10;;;5.32;;
44120;SDS011;29783;52.504;13.478;2022-11-18T23:21:58;8.68;;;5.35;;
44120;SDS011;29783;52.504;13.478;2022-11-18T23:24:24;9.77;;;5.75;;
44120;SDS011;29783;52.504;13.478;2022-11-18T23:27:15;11.20;;;6.03;;
44120;SDS011;29783;52.504;13.478;2022-11-18T23:29:41;10.40;;;5.85;;
44120;SDS011;29783;52.504;13.478;2022-11-18T23:32:19;10.32;;;5.45;;
44120;SDS011;29783;52.504;13.478;2022-11-18T23:35:00;13.05;;;5.32;;
44120;SDS011;29783;52.504;13.478;2022-11-18T23:37:29;11.00;;;5.83;;
44120;SDS011;29783;52.504;13.478;2022-11-18T23:39:58;10.52;;;5.50;;
44120;SDS011;29783;52.504;13.478;2022-11-18T23:42:27;9.25;;;5.35;;
44120;SDS011;29783;52.504;13.478;2022-11-18T23:44:56;13.00;;;6.00;;
44120;SDS011;29783;52.504;13.478;2022-11-18T23:47:22;14.07;;;6.00;;
44120;SDS011;29783;52.504;13.478;2022-11-18T23:49:56;14.38;;;7.55;;
44120;SDS011;29783;52.504;13.478;2022-11-18T23:52:46;10.45;;;6.40;;
44120;SDS011;29783;52.504;13.478;2022-11-18T23:55:15;13.05;;;6.80;;
44120;SDS011;29783;52.504;13.478;2022-11-18T23:57:47;9.73;;;5.63;;
